Time;durP1;ratioP1;P1;durP2;ratioP2;P2;SDS_P1;SDS_P2;PMS_P1;PMS_P2;Temp;Humidity;BMP_temperature;BMP_pressure;BME280_temperature;BME280_humidity;BME280_pressure;Samples;Min_cycle;Max_cycle;Signal;HPM_P1;HPM_P2
2021/12/13 00:01:08;;;;;;;12.57;8.55;;;;;;;6.63;100.00;101443.34;5227568;28;20083;-78
2021/12/13 00:03:54;;;;;;;12.55;8.10;;;;;;;6.71;100.00;101444.19;5219296;28;20037;-78
2021/12/13 00:06:30;;;;;;;14.15;7.55;;;;;;;6.75;100.00;101439.84;5225795;28;20036;-76
2021/12/13 00:09:06;;;;;;;11.55;7.28;;;;;;;6.72;100.00;101434.63;5212895;28;20056;-78
2021/12/13 00:11:41;;;;;;;10.73;6.75;;;;;;;6.73;100.00;101434.63;5218120;28;20029;-78
2021/12/13 00:14:27;;;;;;;11.55;7.20;;;;;;;6.86;100.00;101438.88;5233897;22;20050;-81
2021/12/13 00:17:06;;;;;;;10.65;7.15;;;;;;;6.80;100.00;101441.50;5218816;28;20036;-79
2021/12/13 00:19:41;;;;;;;11.10;7.70;;;;;;;6.84;100.00;101435.44;5213606;28;20040;-78
2021/12/13 00:22:21;;;;;;;12.80;8.52;;;;;;;6.87;100.00;101439.72;5211646;28;20112;-79
2021/12/13 00:24:53;;;;;;;11.55;8.55;;;;;;;6.81;100.00;101439.78;5207350;28;20541;-78
2021/12/13 00:27:28;;;;;;;12.18;7.63;;;;;;;6.77;100.00;101444.13;5201246;28;20399;-79
2021/12/13 00:30:23;;;;;;;14.95;8.90;;;;;;;6.76;100.00;101445.00;5189982;28;20021;-78
2021/12/13 00:33:30;;;;;;;13.95;8.75;;;;;;;6.77;100.00;101451.91;5201244;28;20025;-80
2021/12/13 00:36:17;;;;;;;13.35;7.57;;;;;;;6.79;100.00;101450.16;5199198;28;20037;-78
2021/12/13 00:38:53;;;;;;;10.88;7.38;;;;;;;6.76;100.00;101455.38;5201798;28;20040;-78
2021/12/13 00:41:26;;;;;;;;;;;;;;;6.73;100.00;101451.97;5202693;28;20101;-80
2021/12/13 00:44:05;;;;;;;10.30;6.95;;;;;;;6.81;100.00;101452.78;5200854;28;19913;-78
2021/12/13 00:46:38;;;;;;;12.55;7.95;;;;;;;6.94;100.00;101462.22;5194731;28;20740;-80
2021/12/13 00:49:11;;;;;;;14.52;8.77;;;;;;;6.84;100.00;101455.34;5201776;28;20387;-80
2021/12/13 00:51:45;;;;;;;12.82;8.38;;;;;;;6.82;100.00;101460.56;5201555;28;20410;-78
2021/12/13 00:54:29;;;;;;;11.30;7.75;;;;;;;6.85;100.00;101464.88;5201561;28;20032;-79
2021/12/13 00:57:00;;;;;;;11.02;7.68;;;;;;;6.86;100.00;101459.66;5188236;28;20116;-78
2021/12/13 00:59:36;;;;;;;11.10;7.53;;;;;;;6.87;100.00;101465.72;5194153;28;20112;-79
2021/12/13 01:02:19;;;;;;;12.57;7.68;;;;;;;6.93;100.00;101471.75;5192026;28;20026;-78
2021/12/13 01:05:06;;;;;;;10.30;7.50;;;;;;;6.87;100.00;101470.91;5192068;28;20403;-78
2021/12/13 01:07:59;;;;;;;11.45;7.57;;;;;;;6.86;100.00;101474.38;5193903;28;20030;-78
2021/12/13 01:10:41;;;;;;;13.27;7.88;;;;;;;6.86;100.00;101484.78;5192788;28;20037;-78
2021/12/13 01:13:24;;;;;;;11.27;7.65;;;;;;;6.83;100.00;101490.00;5196114;28;20132;-78
2021/12/13 01:16:21;;;;;;;12.02;7.40;;;;;;;6.85;100.00;101489.13;5191223;28;20026;-79
2021/12/13 01:19:03;;;;;;;12.40;8.43;;;;;;;6.89;100.00;101500.34;5191349;28;20025;-79
2021/12/13 01:22:26;;;;;;;11.55;7.75;;;;;;;6.85;100.00;101498.63;5193132;28;20029;-78
2021/12/13 01:27:37;;;;;;;13.32;8.88;;;;;;;6.94;100.00;101499.44;5190397;28;20033;-78
2021/12/13 01:30:13;;;;;;;12.32;8.27;;;;;;;6.91;100.00;101509.00;5193390;28;20025;-78
2021/12/13 01:32:49;;;;;;;10.80;7.18;;;;;;;6.90;100.00;101505.53;5175336;28;20026;-79
2021/12/13 01:35:28;;;;;;;13.38;7.78;;;;;;;6.93;100.00;101510.72;5182654;28;20092;-78
2021/12/13 01:38:04;;;;;;;12.25;8.25;;;;;;;6.93;100.00;101499.47;5186124;28;20034;-78
2021/12/13 01:40:38;;;;;;;10.90;7.20;;;;;;;6.94;100.00;101509.84;5195226;28;20095;-79
2021/12/13 01:43:16;;;;;;;15.63;8.45;;;;;;;6.94;100.00;101498.59;5193198;28;20021;-78
2021/12/13 01:45:51;;;;;;;14.07;8.05;;;;;;;6.92;100.00;101505.53;5199858;28;20533;-78
2021/12/13 01:48:34;;;;;;;12.80;8.27;;;;;;;6.93;100.00;101507.25;5197339;28;20033;-79
2021/12/13 01:51:10;;;;;;;13.38;8.65;;;;;;;6.95;100.00;101515.91;5183865;28;20488;-78
2021/12/13 01:53:45;;;;;;;11.68;7.97;;;;;;;6.93;100.00;101513.31;5183473;28;20402;-80
2021/12/13 01:56:43;;;;;;;14.93;8.98;;;;;;;6.95;100.00;101505.53;5191982;28;20026;-80
2021/12/13 02:02:12;;;;;;;12.18;8.30;;;;;;;7.01;100.00;101505.47;5173900;28;20096;-78
2021/12/13 02:04:45;;;;;;;14.52;9.25;;;;;;;7.06;100.00;101508.88;5169046;28;20114;-78
2021/12/13 02:07:16;;;;;;;15.50;9.13;;;;;;;7.05;100.00;101509.75;5182611;28;20045;-79
2021/12/13 02:09:46;;;;;;;18.30;11.68;;;;;;;7.03;100.00;101507.19;5192151;28;20037;-79
2021/12/13 02:12:19;;;;;;;16.73;9.55;;;;;;;7.07;100.00;101506.31;5182839;28;20033;-79
2021/12/13 02:17:46;;;;;;;16.90;11.95;;;;;;;7.05;100.00;101501.97;5175118;28;20049;-78
2021/12/13 02:20:24;;;;;;;15.95;9.68;;;;;;;7.10;100.00;101505.44;5172174;28;20026;-79
2021/12/13 02:22:56;;;;;;;12.20;7.90;;;;;;;7.13;100.00;101505.41;5211614;28;20030;-80
2021/12/13 02:25:29;;;;;;;13.23;8.43;;;;;;;7.18;100.00;101503.63;5198241;28;20049;-78
2021/12/13 02:28:04;;;;;;;13.27;8.63;;;;;;;7.19;100.00;101502.75;5196291;28;20093;-78
2021/12/13 02:30:43;;;;;;;14.40;9.75;;;;;;;7.21;100.00;101512.28;5197766;28;20475;-79
2021/12/13 02:33:31;;;;;;;13.43;8.88;;;;;;;7.18;100.00;101507.09;5199955;28;20038;-79
2021/12/13 02:36:08;;;;;;;11.30;7.60;;;;;;;7.19;100.00;101506.22;5203684;28;20025;-79
2021/12/13 02:38:43;;;;;;;12.00;7.95;;;;;;;7.22;100.00;101516.59;5204112;28;20087;-79
2021/12/13 02:41:15;;;;;;;14.13;7.72;;;;;;;7.33;100.00;101507.84;5204200;28;20033;-79
2021/12/13 02:43:49;;;;;;;12.80;7.35;;;;;;;7.31;100.00;101507.00;5203732;28;20541;-78
2021/12/13 02:46:20;;;;;;;12.73;7.57;;;;;;;7.29;100.00;101507.88;5203069;28;20109;-78
2021/12/13 02:48:55;;;;;;;11.77;7.88;;;;;;;7.36;100.00;101500.00;5203977;28;20463;-78
2021/12/13 02:51:37;;;;;;;10.85;7.22;;;;;;;7.31;100.00;101512.19;5203977;28;20079;-78
2021/12/13 02:54:24;;;;;;;12.90;8.23;;;;;;;7.30;100.00;101502.66;5197141;28;20036;-79
2021/12/13 02:56:59;;;;;;;13.90;8.52;;;;;;;7.34;100.00;101514.75;5203516;28;20079;-78
2021/12/13 02:59:31;;;;;;;15.52;8.32;;;;;;;7.33;100.00;101510.44;5192567;28;20030;-78
2021/12/13 03:02:05;;;;;;;12.43;8.43;;;;;;;7.32;100.00;101513.91;5203632;28;20029;-78
2021/12/13 03:04:35;;;;;;;13.70;8.55;;;;;;;7.37;100.00;101517.34;5200557;28;20099;-78
2021/12/13 03:07:12;;;;;;;14.43;8.57;;;;;;;7.43;100.00;101521.63;5202768;28;20437;-80
2021/12/13 03:09:45;;;;;;;14.05;8.80;;;;;;;7.46;100.00;101521.59;5203051;28;20056;-78
2021/12/13 03:12:19;;;;;;;14.20;8.55;;;;;;;7.42;100.00;101520.78;5198987;28;20044;-79
2021/12/13 03:14:56;;;;;;;13.33;9.77;;;;;;;7.41;100.00;101524.25;5203598;28;20116;-80
2021/12/13 03:17:48;;;;;;;13.68;8.73;;;;;;;7.41;100.00;101529.47;5203169;28;20083;-79
2021/12/13 03:20:18;;;;;;;15.90;8.10;;;;;;;7.50;100.00;101531.13;5201122;28;20039;-79
2021/12/13 03:23:01;;;;;;;12.63;7.97;;;;;;;7.47;100.00;101537.19;5203091;28;20387;-78
2021/12/13 03:25:40;;;;;;;13.30;8.38;;;;;;;7.44;100.00;101536.34;5196397;28;20037;-77
2021/12/13 03:28:11;;;;;;;14.68;8.73;;;;;;;7.55;100.00;101535.38;5201460;28;20057;-79
2021/12/13 03:30:56;;;;;;;13.75;9.25;;;;;;;7.51;100.00;101535.44;5200719;28;20025;-78
2021/12/13 03:34:04;;;;;;;13.23;9.13;;;;;;;7.51;100.00;101540.66;5199715;28;20631;-78
2021/12/13 03:36:57;;;;;;;14.60;7.95;;;;;;;7.51;100.00;101540.66;5199652;28;20138;-79
2021/12/13 03:39:32;;;;;;;13.15;8.75;;;;;;;7.52;100.00;101545.81;5194744;28;20104;-78
2021/12/13 03:42:07;;;;;;;12.20;8.57;;;;;;;7.61;100.00;101540.56;5203068;28;20029;-79
2021/12/13 03:44:41;;;;;;;13.70;9.02;;;;;;;7.63;100.00;101531.00;5203091;28;20276;-79
2021/12/13 03:47:16;;;;;;;13.10;8.55;;;;;;;7.62;100.00;101529.28;5201896;28;20029;-79
2021/12/13 03:49:52;;;;;;;13.43;8.57;;;;;;;7.65;100.00;101541.38;5202891;28;20033;-79
2021/12/13 03:52:26;;;;;;;15.38;8.80;;;;;;;7.65;100.00;101538.78;5200880;28;20455;-79
2021/12/13 03:54:59;;;;;;;14.98;8.50;;;;;;;7.67;100.00;101527.50;5202574;28;20033;-79
2021/12/13 03:57:31;;;;;;;13.73;8.55;;;;;;;7.63;100.00;101540.53;5194716;28;20068;-79
2021/12/13 04:00:05;;;;;;;12.63;8.50;;;;;;;7.62;100.00;101549.22;5199191;28;20029;-79
2021/12/13 04:02:38;;;;;;;14.95;9.48;;;;;;;7.64;100.00;101543.13;5202104;28;20036;-79
2021/12/13 04:05:13;;;;;;;14.95;9.23;;;;;;;7.70;100.00;101553.47;5199684;28;20029;-77
2021/12/13 04:07:49;;;;;;;18.02;11.15;;;;;;;7.67;100.00;101540.50;5202130;28;20025;-79
2021/12/13 04:10:19;;;;;;;;;;;;;;;7.67;100.00;101550.91;5202904;28;20037;-79
2021/12/13 04:12:55;;;;;;;17.13;10.03;;;;;;;7.67;100.00;101556.09;5202658;28;20074;-82
2021/12/13 04:16:02;;;;;;;18.00;11.30;;;;;;;7.74;100.00;101547.38;5202313;28;20029;-80
2021/12/13 04:21:21;;;;;;;16.70;9.68;;;;;;;7.67;100.00;101560.47;5202813;28;19971;-79
2021/12/13 04:23:57;;;;;;;18.08;10.40;;;;;;;7.72;100.00;101561.28;5201974;28;20652;-81
2021/12/13 04:26:29;;;;;;;18.40;10.48;;;;;;;7.75;100.00;101559.53;5161248;28;20129;-80
2021/12/13 04:29:00;;;;;;;18.60;10.32;;;;;;;7.68;100.00;101555.22;5172312;28;20029;-81
2021/12/13 04:31:35;;;;;;;20.83;11.75;;;;;;;7.66;100.00;101556.16;5202612;28;20025;-81
2021/12/13 04:34:06;;;;;;;18.23;10.88;;;;;;;7.69;100.00;101566.53;5201826;28;20033;-81
2021/12/13 04:36:46;;;;;;;21.23;11.25;;;;;;;7.69;100.00;101571.72;5201609;28;20411;-80
2021/12/13 04:39:30;;;;;;;20.75;12.18;;;;;;;7.72;100.00;101571.69;5201653;28;20580;-78
2021/12/13 04:42:05;;;;;;;22.10;15.20;;;;;;;7.78;100.00;101572.50;5194651;28;20075;-78
2021/12/13 04:44:46;;;;;;;25.17;14.27;;;;;;;7.82;100.00;101575.94;5201235;28;20033;-78
2021/12/13 04:47:22;;;;;;;25.48;14.98;;;;;;;7.84;100.00;101576.81;5200658;28;20112;-80
2021/12/13 04:50:04;;;;;;;22.85;11.65;;;;;;;7.81;100.00;101577.69;5201898;28;20036;-77
2021/12/13 04:52:36;;;;;;;21.77;11.48;;;;;;;7.84;100.00;101585.47;5195200;28;20044;-79
2021/12/13 04:55:19;;;;;;;26.73;12.55;;;;;;;7.81;100.00;101576.81;5201435;28;20053;-79
2021/12/13 04:57:53;;;;;;;22.58;12.32;;;;;;;7.76;100.00;101589.88;5199352;28;20033;-80
2021/12/13 05:00:27;;;;;;;24.15;14.00;;;;;;;7.71;100.00;101586.44;5197627;28;20407;-80
2021/12/13 05:03:02;;;;;;;24.15;14.85;;;;;;;7.72;100.00;101589.91;5197629;28;20107;-78
2021/12/13 05:05:34;;;;;;;26.65;15.38;;;;;;;7.75;100.00;101588.16;5198716;28;20045;-80
2021/12/13 05:08:13;;;;;;;22.98;12.88;;;;;;;7.72;100.00;101588.16;5200251;28;20021;-79
2021/12/13 05:10:48;;;;;;;25.75;14.30;;;;;;;7.69;100.00;101588.19;5201027;28;20506;-80
2021/12/13 05:13:25;;;;;;;23.33;14.27;;;;;;;7.71;100.00;101591.63;5201308;28;20040;-79
2021/12/13 05:15:59;;;;;;;27.55;14.38;;;;;;;7.75;100.00;101593.34;5200590;28;20033;-77
2021/12/13 05:18:33;;;;;;;25.00;13.88;;;;;;;7.68;100.00;101596.84;5193187;28;20372;-79
2021/12/13 05:21:08;;;;;;;29.20;13.70;;;;;;;7.73;100.00;101600.28;5201141;28;20079;-78
2021/12/13 05:23:51;;;;;;;26.73;11.90;;;;;;;7.67;100.00;101595.13;5200705;28;20116;-80
2021/12/13 05:26:43;;;;;;;24.38;12.27;;;;;;;7.69;100.00;101590.78;5200822;28;20037;-79
2021/12/13 05:29:36;;;;;;;25.33;12.23;;;;;;;7.67;100.00;101602.09;5191906;28;20585;-79
2021/12/13 05:32:16;;;;;;;28.50;13.90;;;;;;;7.76;100.00;101592.47;5200062;28;20083;-78
2021/12/13 05:34:51;;;;;;;29.65;15.98;;;;;;;7.77;100.00;101590.72;5198483;28;20739;-78
2021/12/13 05:37:22;;;;;;;29.02;14.15;;;;;;;7.73;100.00;101592.47;5196326;28;20048;-78
2021/12/13 05:39:57;;;;;;;26.50;14.20;;;;;;;7.72;100.00;101600.31;5200380;28;20029;-79
2021/12/13 05:43:05;;;;;;;25.13;13.57;;;;;;;7.74;100.00;101596.81;5184128;28;20041;-78
2021/12/13 05:45:42;;;;;;;24.77;13.85;;;;;;;7.70;100.00;101599.47;5191323;28;20283;-78
2021/12/13 05:48:19;;;;;;;32.13;13.50;;;;;;;7.74;100.00;101607.22;5192650;28;20020;-78
2021/12/13 05:50:52;;;;;;;29.35;14.52;;;;;;;7.75;100.00;101602.88;5187624;28;20411;-80
2021/12/13 05:53:26;;;;;;;28.02;13.55;;;;;;;7.72;100.00;101603.75;5200301;28;20683;-78
2021/12/13 05:56:05;;;;;;;32.67;13.90;;;;;;;7.77;100.00;101602.00;5200857;28;20032;-79
2021/12/13 05:58:42;;;;;;;30.50;13.70;;;;;;;7.74;100.00;101607.22;5177104;28;20042;-77
2021/12/13 06:01:27;;;;;;;28.77;13.73;;;;;;;7.75;100.00;101615.91;5197823;28;20529;-81
2021/12/13 06:04:06;;;;;;;29.00;15.70;;;;;;;7.84;100.00;101619.28;5201852;28;20037;-84
2021/12/13 06:06:50;;;;;;;38.75;16.83;;;;;;;7.81;100.00;101619.31;5205304;28;20129;-83
2021/12/13 06:09:51;;;;;;;30.52;15.90;;;;;;;7.74;100.00;101612.41;5205657;28;20075;-77
2021/12/13 06:12:51;;;;;;;31.77;15.25;;;;;;;7.73;100.00;101621.09;5205065;28;20025;-80
2021/12/13 06:15:36;;;;;;;32.08;15.70;;;;;;;7.76;100.00;101615.03;5235501;22;20134;-81
2021/12/13 06:18:31;;;;;;;33.03;14.85;;;;;;;7.80;100.00;101619.31;5230509;28;20091;-81
2021/12/13 06:21:37;;;;;;;33.95;14.88;;;;;;;7.82;100.00;101621.03;5223588;28;20024;-81
2021/12/13 06:24:10;;;;;;;30.58;14.15;;;;;;;7.84;100.00;101626.25;5211391;28;20151;-81
2021/12/13 06:26:40;;;;;;;30.23;14.48;;;;;;;7.87;100.00;101626.22;5236233;28;20136;-81
2021/12/13 06:29:10;;;;;;;33.38;15.10;;;;;;;7.85;100.00;101628.81;5212104;28;20163;-81
2021/12/13 06:31:44;;;;;;;34.13;16.00;;;;;;;7.84;100.00;101637.50;5216965;28;20386;-81
2021/12/13 06:34:16;;;;;;;33.28;15.07;;;;;;;7.80;100.00;101634.94;5217339;28;20031;-81
2021/12/13 06:36:49;;;;;;;36.47;16.33;;;;;;;7.85;100.00;101636.63;5248330;28;20107;-81
2021/12/13 06:39:26;;;;;;;37.97;17.40;;;;;;;7.96;100.00;101650.44;5221958;28;20029;-81
2021/12/13 06:42:04;;;;;;;36.25;16.90;;;;;;;7.94;100.00;101648.72;5241411;28;20054;-81
2021/12/13 06:44:39;;;;;;;34.53;17.98;;;;;;;7.98;100.00;101647.78;5240545;28;20024;-81
2021/12/13 06:47:10;;;;;;;;;;;;;;;7.94;100.00;101657.41;5244735;28;20024;-81
2021/12/13 06:49:44;;;;;;;32.40;13.57;;;;;;;7.88;100.00;101647.00;5239955;28;19934;-82
2021/12/13 06:52:14;;;;;;;37.13;15.82;;;;;;;7.94;100.00;101653.91;5221721;28;20272;-80
2021/12/13 06:55:14;;;;;;;36.07;16.93;;;;;;;7.92;100.00;101648.75;5218747;28;20035;-81
2021/12/13 06:57:54;;;;;;;31.60;15.07;;;;;;;7.93;100.00;101657.38;5234410;28;20362;-81
2021/12/13 07:00:32;;;;;;;35.08;17.27;;;;;;;7.96;100.00;101652.16;5236822;28;20029;-80
2021/12/13 07:03:07;;;;;;;35.72;16.98;;;;;;;7.94;100.00;101662.59;5219944;28;20033;-81
2021/12/13 07:05:54;;;;;;;41.70;18.33;;;;;;;7.98;100.00;101666.91;5242846;28;20025;-80
2021/12/13 07:08:34;;;;;;;42.70;18.88;;;;;;;8.18;100.00;101670.22;5242268;28;20296;-80
2021/12/13 07:11:15;;;;;;;39.88;18.58;;;;;;;8.03;100.00;101672.06;5234318;28;20029;-80
2021/12/13 07:13:58;;;;;;;39.78;17.92;;;;;;;8.00;100.00;101680.75;5220556;28;20115;-80
2021/12/13 07:16:32;;;;;;;37.75;16.63;;;;;;;8.06;100.00;101682.47;5222859;28;20413;-82
2021/12/13 07:19:32;;;;;;;39.15;17.58;;;;;;;8.00;100.00;101685.09;5234131;28;20028;-81
2021/12/13 07:22:06;;;;;;;37.58;15.93;;;;;;;8.03;100.00;101688.53;5205993;28;20033;-81
2021/12/13 07:24:43;;;;;;;41.28;16.88;;;;;;;8.03;100.00;101691.16;5216818;28;20498;-81
2021/12/13 07:27:23;;;;;;;37.72;16.83;;;;;;;8.03;100.00;101688.53;5234739;28;20478;-81
2021/12/13 07:30:11;;;;;;;38.10;17.17;;;;;;;8.06;100.00;101703.28;5236917;28;20021;-82
2021/12/13 07:32:53;;;;;;;49.80;19.17;;;;;;;8.04;100.00;101705.88;5232872;28;20033;-81
2021/12/13 07:35:29;;;;;;;41.22;17.05;;;;;;;8.05;100.00;101696.34;5241212;28;20043;-83
2021/12/13 07:38:04;;;;;;;36.92;17.33;;;;;;;8.04;100.00;101705.88;5237512;28;20747;-82
2021/12/13 07:40:38;;;;;;;38.70;16.70;;;;;;;7.99;100.00;101702.47;5216877;28;20037;-80
2021/12/13 07:43:16;;;;;;;40.90;16.60;;;;;;;8.00;100.00;101704.19;5236226;28;20074;-80
2021/12/13 07:46:22;;;;;;;38.45;17.83;;;;;;;8.07;100.00;101711.06;5241141;28;20036;-81
2021/12/13 07:49:08;;;;;;;37.33;17.33;;;;;;;8.06;100.00;101711.94;5200400;28;20044;-81
2021/12/13 07:51:47;;;;;;;36.72;16.80;;;;;;;8.12;100.00;101709.31;5226761;28;20514;-80
2021/12/13 07:54:19;;;;;;;37.10;17.45;;;;;;;8.15;100.00;101713.63;5218617;28;20036;-80
2021/12/13 07:56:59;;;;;;;38.30;16.85;;;;;;;8.14;100.00;101712.78;5230651;28;20090;-82
2021/12/13 07:59:35;;;;;;;39.42;17.83;;;;;;;8.17;100.00;101723.16;5230679;28;20032;-80
2021/12/13 08:02:19;;;;;;;40.65;17.05;;;;;;;8.11;100.00;101714.53;5238326;28;20024;-82
2021/12/13 08:05:09;;;;;;;40.40;17.95;;;;;;;8.15;100.00;101703.19;5219226;28;20025;-82
2021/12/13 08:07:49;;;;;;;42.05;17.55;;;;;;;8.27;100.00;101710.97;5242618;28;20020;-82
2021/12/13 08:10:26;;;;;;;45.83;19.15;;;;;;;8.22;100.00;101713.59;5217025;28;20028;-82
2021/12/13 08:13:03;;;;;;;46.40;18.88;;;;;;;8.22;100.00;101721.41;5213286;28;20048;-80
2021/12/13 08:15:46;;;;;;;39.75;19.48;;;;;;;8.25;100.00;101716.16;5220284;28;20029;-80
2021/12/13 08:18:36;;;;;;;42.03;18.45;;;;;;;8.26;100.00;101717.94;5218993;28;20631;-80
2021/12/13 08:21:24;;;;;;;44.85;19.33;;;;;;;8.36;100.00;101726.53;5215859;28;20052;-81
2021/12/13 08:23:58;;;;;;;42.67;19.30;;;;;;;8.36;100.00;101723.91;5230699;28;20096;-81
2021/12/13 08:26:41;;;;;;;41.00;17.80;;;;;;;8.40;100.00;101729.06;5238458;28;20584;-82
2021/12/13 08:29:27;;;;;;;46.72;18.85;;;;;;;8.43;100.00;101723.84;5236619;28;20047;-81
2021/12/13 08:31:59;;;;;;;;;;;;;;;8.37;100.00;101729.09;5220948;28;20076;-80
2021/12/13 08:34:34;;;;;;;38.58;16.73;;;;;;;8.36;100.00;101735.19;5221147;28;19912;-82
2021/12/13 08:37:39;;;;;;;40.20;17.90;;;;;;;8.34;100.00;101742.16;5245320;28;20032;-82
2021/12/13 08:40:18;;;;;;;40.05;18.70;;;;;;;8.40;100.00;101744.69;5213508;28;20040;-80
2021/12/13 08:42:50;;;;;;;40.22;17.40;;;;;;;8.47;100.00;101750.72;5231034;28;20112;-81
2021/12/13 08:45:32;;;;;;;44.03;19.27;;;;;;;8.52;100.00;101746.38;5223213;28;20578;-81
2021/12/13 08:48:12;;;;;;;41.22;18.63;;;;;;;8.53;100.00;101746.34;5236031;28;20055;-81
2021/12/13 08:50:51;;;;;;;41.65;17.33;;;;;;;8.57;100.00;101745.41;5218178;28;20028;-80
2021/12/13 08:53:30;;;;;;;40.25;17.08;;;;;;;8.60;100.00;101744.53;5234684;28;20055;-82
2021/12/13 08:56:13;;;;;;;38.15;16.42;;;;;;;8.53;100.00;101748.94;5214126;28;20036;-81
2021/12/13 08:58:54;;;;;;;40.17;16.27;;;;;;;8.58;100.00;101751.50;5219318;28;20032;-81
2021/12/13 09:01:28;;;;;;;40.17;16.25;;;;;;;8.59;100.00;101756.69;5217175;28;20037;-81
2021/12/13 09:04:00;;;;;;;32.03;15.63;;;;;;;8.60;100.00;101762.78;5220693;28;20020;-80
2021/12/13 09:06:33;;;;;;;40.05;17.98;;;;;;;8.60;100.00;101762.78;5229339;28;20035;-82
2021/12/13 09:09:17;;;;;;;42.85;18.70;;;;;;;8.67;100.00;101773.13;5220169;28;20505;-82
2021/12/13 09:11:58;;;;;;;40.58;16.80;;;;;;;8.65;100.00;101769.69;5220488;28;20024;-82
2021/12/13 09:14:39;;;;;;;37.58;17.58;;;;;;;8.68;100.00;101767.03;5219446;28;20521;-80
2021/12/13 09:17:26;;;;;;;39.45;17.65;;;;;;;8.71;100.00;101774.84;5220384;28;20101;-80
2021/12/13 09:20:21;;;;;;;38.97;17.55;;;;;;;8.77;100.00;101784.34;5234999;28;20040;-82
2021/12/13 09:22:56;;;;;;;36.78;15.73;;;;;;;8.79;100.00;101790.41;5219430;28;20025;-81
2021/12/13 09:25:44;;;;;;;41.95;16.92;;;;;;;8.92;100.00;101790.25;5222680;28;20247;-80
2021/12/13 09:28:21;;;;;;;33.97;15.85;;;;;;;8.99;100.00;101791.06;5214922;28;20043;-82
2021/12/13 09:31:13;;;;;;;33.85;16.25;;;;;;;8.95;100.00;101792.88;5219796;28;20016;-80
2021/12/13 09:33:48;;;;;;;34.90;15.63;;;;;;;9.11;100.00;101791.84;5217440;28;20033;-79
2021/12/13 09:36:27;;;;;;;34.45;16.92;;;;;;;9.12;100.00;101790.97;5228352;28;20052;-79
2021/12/13 09:39:30;;;;;;;34.83;17.83;;;;;;;9.27;100.00;101793.38;5212904;28;20119;-78
2021/12/13 09:42:11;;;;;;;34.03;14.77;;;;;;;9.15;100.00;101788.31;5231382;28;20082;-81
2021/12/13 09:45:01;;;;;;;28.95;15.23;;;;;;;9.16;100.00;101795.25;5223862;28;20020;-81
2021/12/13 09:47:38;;;;;;;32.00;15.35;;;;;;;9.14;100.00;101799.63;5220563;28;20189;-81
2021/12/13 09:50:18;;;;;;;28.52;14.85;;;;;;;9.09;100.00;101798.78;5245825;28;20039;-81
2021/12/13 09:53:00;;;;;;;29.83;14.82;;;;;;;9.13;100.00;101794.41;5220031;28;20024;-82
2021/12/13 09:55:49;;;;;;;28.50;13.68;;;;;;;9.11;100.00;101797.06;5212715;28;20042;-81
2021/12/13 09:58:27;;;;;;;27.15;14.00;;;;;;;9.18;100.00;101798.72;5217803;28;20017;-79
2021/12/13 10:01:35;;;;;;;26.90;13.95;;;;;;;9.14;100.00;101804.84;5216799;28;20370;-82
2021/12/13 10:04:29;;;;;;;30.08;13.75;;;;;;;9.19;100.00;101795.22;5221573;28;20051;-78
2021/12/13 10:07:16;;;;;;;25.58;13.25;;;;;;;9.24;100.00;101801.25;5224592;28;20040;-82
2021/12/13 10:09:50;;;;;;;26.30;13.30;;;;;;;9.32;100.00;101787.25;5224295;28;20037;-81
2021/12/13 10:12:30;;;;;;;31.52;14.57;;;;;;;9.37;100.00;101795.91;5216530;28;20597;-80
2021/12/13 10:15:25;;;;;;;24.23;12.40;;;;;;;9.34;100.00;101790.69;5220327;28;20035;-81
2021/12/13 10:18:01;;;;;;;21.65;12.00;;;;;;;9.39;100.00;101794.13;5224262;28;20039;-81
2021/12/13 10:20:34;;;;;;;;;;;;;;;9.49;100.00;101795.75;5210073;28;20032;-81
2021/12/13 10:23:10;;;;;;;21.63;11.43;;;;;;;9.42;100.00;101788.88;5223254;28;19934;-80
2021/12/13 10:25:44;;;;;;;24.80;14.38;;;;;;;9.51;100.00;101787.91;5217859;28;20028;-78
2021/12/13 10:28:20;;;;;;;23.02;13.38;;;;;;;9.54;100.00;101780.91;5217829;28;20504;-82
2021/12/13 10:31:01;;;;;;;23.83;12.57;;;;;;;9.49;100.00;101776.63;5220026;28;20028;-81
2021/12/13 10:33:33;;;;;;;23.83;12.27;;;;;;;9.56;100.00;101780.88;5205412;28;20040;-79
2021/12/13 10:36:06;;;;;;;20.58;12.05;;;;;;;9.52;100.00;101784.41;5228465;28;20021;-80
2021/12/13 10:38:43;;;;;;;21.30;11.40;;;;;;;9.49;100.00;101793.13;5237127;28;20025;-80
2021/12/13 10:41:18;;;;;;;21.92;11.73;;;;;;;9.46;100.00;101789.72;5220822;28;20020;-82
2021/12/13 10:43:56;;;;;;;20.35;11.70;;;;;;;9.49;100.00;101789.66;5221186;28;20031;-81
2021/12/13 10:46:34;;;;;;;18.65;10.75;;;;;;;9.52;100.00;101780.03;5227195;28;20479;-79
2021/12/13 10:49:20;;;;;;;22.27;12.23;;;;;;;9.59;100.00;101786.06;5221027;28;20032;-80
2021/12/13 10:52:03;;;;;;;22.05;11.88;;;;;;;9.74;100.00;101781.53;5222057;28;20096;-80
2021/12/13 10:54:39;;;;;;;18.05;10.45;;;;;;;9.69;100.00;101785.91;5221292;28;20032;-81
2021/12/13 10:57:19;;;;;;;22.83;11.90;;;;;;;9.71;100.00;101772.84;5220707;28;20029;-81
2021/12/13 10:59:50;;;;;;;17.83;10.45;;;;;;;9.67;100.00;101779.00;5219395;28;20075;-81
2021/12/13 11:02:26;;;;;;;17.33;10.93;;;;;;;9.77;100.00;101770.16;5236326;28;20414;-80
2021/12/13 11:05:08;;;;;;;18.85;11.10;;;;;;;9.92;100.00;101778.66;5216776;28;20017;-81
2021/12/13 11:07:39;;;;;;;18.55;11.05;;;;;;;9.99;100.00;101780.28;5221905;28;20029;-82
2021/12/13 11:10:13;;;;;;;17.80;11.45;;;;;;;10.05;100.00;101782.00;5221194;28;20085;-81
2021/12/13 11:12:48;;;;;;;16.57;10.70;;;;;;;10.05;100.00;101782.00;5220526;28;20070;-82
2021/12/13 11:15:25;;;;;;;16.85;11.15;;;;;;;10.01;100.00;101781.16;5229687;28;20036;-82
2021/12/13 11:17:56;;;;;;;17.92;11.18;;;;;;;10.11;100.00;101777.56;5221347;28;20017;-81
2021/12/13 11:20:31;;;;;;;16.05;10.32;;;;;;;10.03;100.00;101783.78;5219214;28;20041;-81
2021/12/13 11:23:02;;;;;;;16.23;9.77;;;;;;;10.08;100.00;101769.75;5221778;28;20035;-80
2021/12/13 11:25:39;;;;;;;18.30;10.75;;;;;;;10.02;100.00;101776.81;5219582;28;20033;-81
2021/12/13 11:28:11;;;;;;;18.05;10.95;;;;;;;10.05;100.00;101766.31;5238601;28;20020;-82
2021/12/13 11:30:45;;;;;;;17.63;11.02;;;;;;;10.06;100.00;101768.94;5236339;28;20039;-81
2021/12/13 11:33:37;;;;;;;15.90;10.13;;;;;;;10.14;100.00;101766.22;5221928;28;20053;-81
2021/12/13 11:36:10;;;;;;;17.20;10.23;;;;;;;10.13;100.00;101767.94;5244507;28;20027;-81
2021/12/13 11:38:59;;;;;;;19.15;10.55;;;;;;;10.09;100.00;101773.22;5238449;28;20060;-80
2021/12/13 11:41:47;;;;;;;16.25;10.13;;;;;;;10.08;100.00;101776.72;5218074;28;20032;-81
2021/12/13 11:44:26;;;;;;;16.05;9.77;;;;;;;10.16;100.00;101772.25;5223193;28;20684;-81
2021/12/13 11:47:12;;;;;;;17.00;9.70;;;;;;;10.12;100.00;101778.41;5221975;28;20085;-81
2021/12/13 11:50:07;;;;;;;14.85;9.95;;;;;;;10.11;100.00;101768.84;5225926;28;20021;-82
2021/12/13 11:52:59;;;;;;;14.88;9.38;;;;;;;10.04;100.00;101773.31;5234204;28;20040;-82
2021/12/13 11:56:16;;;;;;;17.73;10.88;;;;;;;9.96;100.00;101784.72;5213797;28;20567;-82
2021/12/13 11:59:03;;;;;;;19.27;10.13;;;;;;;9.88;100.00;101779.59;5172306;28;20587;-80
2021/12/13 12:02:01;;;;;;;18.58;10.63;;;;;;;9.84;100.00;101771.81;5155829;28;20037;-81
2021/12/13 12:05:18;;;;;;;21.38;10.68;;;;;;;9.95;100.00;101764.69;5231090;28;20060;-80
2021/12/13 12:08:07;;;;;;;;;;;;;;;9.91;100.00;101776.06;5224101;28;20432;-80
2021/12/13 12:11:15;;;;;;;20.60;10.15;;;;;;;9.87;100.00;101779.59;5216591;28;19913;-80
2021/12/13 12:14:01;;;;;;;22.63;12.05;;;;;;;9.95;100.00;101769.91;5223035;28;20035;-81
2021/12/13 12:16:45;;;;;;;22.75;11.85;;;;;;;9.89;100.00;101775.22;5224956;28;20036;-81
2021/12/13 12:19:22;;;;;;;24.73;12.38;;;;;;;9.92;100.00;101776.06;5219505;28;20253;-81
2021/12/13 12:22:02;;;;;;;27.58;13.50;;;;;;;10.01;100.00;101769.84;5235300;28;20296;-81
2021/12/13 12:24:45;;;;;;;19.65;11.13;;;;;;;9.88;100.00;101768.28;5213922;28;20082;-81